sensor_id;sensor_type;location;lat;lon;timestamp;P1;durP1;ratioP1;P2;durP2;ratioP2
71108;SDS011;59614;51.012;-1.648;2023-05-08T00:00:36;10.05;;;4.60;;
71108;SDS011;59614;51.012;-1.648;2023-05-08T00:03:02;17.15;;;5.10;;
71108;SDS011;59614;51.012;-1.648;2023-05-08T00:05:28;10.90;;;4.97;;
71108;SDS011;59614;51.012;-1.648;2023-05-08T00:07:53;17.30;;;4.90;;
71108;SDS011;59614;51.012;-1.648;2023-05-08T00:10:25;13.90;;;4.75;;
71108;SDS011;59614;51.012;-1.648;2023-05-08T00:12:51;14.10;;;5.68;;
71108;SDS011;59614;51.012;-1.648;2023-05-08T00:15:17;17.60;;;5.95;;
71108;SDS011;59614;51.012;-1.648;2023-05-08T00:17:43;13.23;;;5.20;;
71108;SDS011;59614;51.012;-1.648;2023-05-08T00:20:08;16.98;;;4.88;;
71108;SDS011;59614;51.012;-1.648;2023-05-08T00:22:34;14.05;;;5.47;;
71108;SDS011;59614;51.012;-1.648;2023-05-08T00:25:00;12.57;;;5.05;;
71108;SDS011;59614;51.012;-1.648;2023-05-08T00:27:25;14.30;;;5.85;;
71108;SDS011;59614;51.012;-1.648;2023-05-08T00:29:51;16.13;;;5.38;;
71108;SDS011;59614;51.012;-1.648;2023-05-08T00:32:16;12.07;;;5.20;;
71108;SDS011;59614;51.012;-1.648;2023-05-08T00:34:42;12.88;;;5.68;;
71108;SDS011;59614;51.012;-1.648;2023-05-08T00:37:07;15.63;;;5.65;;
71108;SDS011;59614;51.012;-1.648;2023-05-08T00:39:32;15.23;;;5.55;;
71108;SDS011;59614;51.012;-1.648;2023-05-08T00:41:58;16.58;;;5.60;;
71108;SDS011;59614;51.012;-1.648;2023-05-08T00:44:24;12.60;;;5.45;;
71108;SDS011;59614;51.012;-1.648;2023-05-08T00:46:49;14.63;;;5.65;;
71108;SDS011;59614;51.012;-1.648;2023-05-08T00:49:15;21.80;;;7.50;;
71108;SDS011;59614;51.012;-1.648;2023-05-08T00:51:41;16.92;;;6.93;;
71108;SDS011;59614;51.012;-1.648;2023-05-08T00:54:08;15.70;;;6.23;;
71108;SDS011;59614;51.012;-1.648;2023-05-08T00:56:34;17.08;;;6.78;;
71108;SDS011;59614;51.012;-1.648;2023-05-08T00:59:02;21.02;;;8.18;;
71108;SDS011;59614;51.012;-1.648;2023-05-08T01:01:38;19.73;;;7.50;;
71108;SDS011;59614;51.012;-1.648;2023-05-08T01:04:05;26.45;;;8.40;;
71108;SDS011;59614;51.012;-1.648;2023-05-08T01:06:31;18.63;;;7.65;;
71108;SDS011;59614;51.012;-1.648;2023-05-08T01:08:58;23.08;;;9.32;;
71108;SDS011;59614;51.012;-1.648;2023-05-08T01:11:25;16.85;;;8.35;;
71108;SDS011;59614;51.012;-1.648;2023-05-08T01:36:16;23.30;;;9.95;;
71108;SDS011;59614;51.012;-1.648;2023-05-08T01:41:37;18.23;;;9.05;;
71108;SDS011;59614;51.012;-1.648;2023-05-08T01:44:23;22.20;;;10.45;;
71108;SDS011;59614;51.012;-1.648;2023-05-08T01:46:54;19.83;;;9.88;;
71108;SDS011;59614;51.012;-1.648;2023-05-08T01:49:22;21.48;;;10.07;;
71108;SDS011;59614;51.012;-1.648;2023-05-08T01:52:04;15.70;;;9.40;;
71108;SDS011;59614;51.012;-1.648;2023-05-08T01:54:35;20.67;;;9.60;;
71108;SDS011;59614;51.012;-1.648;2023-05-08T01:57:06;18.33;;;9.02;;
71108;SDS011;59614;51.012;-1.648;2023-05-08T01:59:34;17.83;;;9.55;;
71108;SDS011;59614;51.012;-1.648;2023-05-08T02:02:02;19.33;;;9.85;;
71108;SDS011;59614;51.012;-1.648;2023-05-08T02:04:30;17.85;;;10.48;;
71108;SDS011;59614;51.012;-1.648;2023-05-08T02:06:57;20.27;;;9.90;;
71108;SDS011;59614;51.012;-1.648;2023-05-08T02:09:23;21.90;;;9.60;;
71108;SDS011;59614;51.012;-1.648;2023-05-08T02:11:50;21.55;;;10.68;;
71108;SDS011;59614;51.012;-1.648;2023-05-08T02:14:17;20.30;;;10.30;;
71108;SDS011;59614;51.012;-1.648;2023-05-08T02:16:45;19.52;;;10.93;;
71108;SDS011;59614;51.012;-1.648;2023-05-08T02:19:13;20.05;;;10.73;;
71108;SDS011;59614;51.012;-1.648;2023-05-08T02:21:42;22.45;;;11.23;;
71108;SDS011;59614;51.012;-1.648;2023-05-08T02:26:35;21.77;;;10.68;;
71108;SDS011;59614;51.012;-1.648;2023-05-08T02:29:03;22.02;;;10.98;;
71108;SDS011;59614;51.012;-1.648;2023-05-08T02:31:29;24.05;;;10.55;;
71108;SDS011;59614;51.012;-1.648;2023-05-08T02:33:55;22.58;;;11.52;;
71108;SDS011;59614;51.012;-1.648;2023-05-08T02:36:22;21.73;;;11.57;;
71108;SDS011;59614;51.012;-1.648;2023-05-08T02:38:50;19.70;;;10.90;;
71108;SDS011;59614;51.012;-1.648;2023-05-08T02:41:18;24.65;;;11.77;;
71108;SDS011;59614;51.012;-1.648;2023-05-08T02:46:15;21.15;;;10.68;;
71108;SDS011;59614;51.012;-1.648;2023-05-08T02:51:24;27.73;;;12.13;;
71108;SDS011;59614;51.012;-1.648;2023-05-08T02:54:03;24.02;;;11.73;;
71108;SDS011;59614;51.012;-1.648;2023-05-08T02:56:38;24.73;;;12.40;;
71108;SDS011;59614;51.012;-1.648;2023-05-08T02:59:12;19.77;;;11.15;;
71108;SDS011;59614;51.012;-1.648;2023-05-08T03:01:44;27.30;;;12.48;;
71108;SDS011;59614;51.012;-1.648;2023-05-08T03:07:20;18.25;;;10.80;;
71108;SDS011;59614;51.012;-1.648;2023-05-08T03:09:50;19.70;;;11.55;;
71108;SDS011;59614;51.012;-1.648;2023-05-08T03:12:26;24.27;;;11.77;;
71108;SDS011;59614;51.012;-1.648;2023-05-08T03:14:59;24.65;;;12.73;;
71108;SDS011;59614;51.012;-1.648;2023-05-08T03:17:36;22.70;;;11.88;;
71108;SDS011;59614;51.012;-1.648;2023-05-08T03:20:07;24.13;;;11.80;;
71108;SDS011;59614;51.012;-1.648;2023-05-08T03:22:36;25.85;;;12.50;;
71108;SDS011;59614;51.012;-1.648;2023-05-08T03:25:05;34.08;;;13.20;;
71108;SDS011;59614;51.012;-1.648;2023-05-08T03:27:33;27.80;;;12.15;;
71108;SDS011;59614;51.012;-1.648;2023-05-08T03:30:00;26.40;;;12.63;;
71108;SDS011;59614;51.012;-1.648;2023-05-08T03:32:26;25.40;;;11.68;;
71108;SDS011;59614;51.012;-1.648;2023-05-08T03:34:54;22.25;;;11.00;;
71108;SDS011;59614;51.012;-1.648;2023-05-08T03:37:23;21.80;;;10.77;;
71108;SDS011;59614;51.012;-1.648;2023-05-08T03:39:49;21.52;;;10.65;;
71108;SDS011;59614;51.012;-1.648;2023-05-08T03:42:15;24.10;;;11.05;;
71108;SDS011;59614;51.012;-1.648;2023-05-08T03:44:47;18.20;;;10.65;;
71108;SDS011;59614;51.012;-1.648;2023-05-08T03:47:17;24.27;;;10.27;;
71108;SDS011;59614;51.012;-1.648;2023-05-08T03:49:46;27.05;;;10.50;;
71108;SDS011;59614;51.012;-1.648;2023-05-08T03:52:13;20.67;;;10.18;;
71108;SDS011;59614;51.012;-1.648;2023-05-08T03:54:40;20.83;;;10.55;;
71108;SDS011;59614;51.012;-1.648;2023-05-08T03:57:06;21.83;;;9.60;;
71108;SDS011;59614;51.012;-1.648;2023-05-08T03:59:41;20.30;;;10.57;;
71108;SDS011;59614;51.012;-1.648;2023-05-08T04:02:25;18.25;;;10.07;;
71108;SDS011;59614;51.012;-1.648;2023-05-08T04:05:04;21.52;;;10.18;;
71108;SDS011;59614;51.012;-1.648;2023-05-08T04:07:38;23.05;;;10.05;;
71108;SDS011;59614;51.012;-1.648;2023-05-08T04:10:12;23.23;;;10.32;;
71108;SDS011;59614;51.012;-1.648;2023-05-08T04:15:30;19.35;;;9.65;;
71108;SDS011;59614;51.012;-1.648;2023-05-08T04:17:58;19.02;;;10.15;;
71108;SDS011;59614;51.012;-1.648;2023-05-08T04:20:28;21.40;;;10.65;;
71108;SDS011;59614;51.012;-1.648;2023-05-08T04:22:55;23.80;;;11.63;;
71108;SDS011;59614;51.012;-1.648;2023-05-08T04:25:22;19.30;;;9.88;;
71108;SDS011;59614;51.012;-1.648;2023-05-08T04:27:48;23.88;;;10.23;;
71108;SDS011;59614;51.012;-1.648;2023-05-08T04:30:15;22.13;;;10.60;;
71108;SDS011;59614;51.012;-1.648;2023-05-08T04:32:41;26.95;;;11.73;;
71108;SDS011;59614;51.012;-1.648;2023-05-08T04:35:07;23.75;;;11.45;;
71108;SDS011;59614;51.012;-1.648;2023-05-08T04:37:32;26.42;;;11.07;;
71108;SDS011;59614;51.012;-1.648;2023-05-08T04:39:58;26.85;;;11.80;;
71108;SDS011;59614;51.012;-1.648;2023-05-08T04:42:25;27.77;;;11.10;;
71108;SDS011;59614;51.012;-1.648;2023-05-08T04:44:51;21.70;;;10.20;;
71108;SDS011;59614;51.012;-1.648;2023-05-08T04:47:17;23.05;;;10.82;;
71108;SDS011;59614;51.012;-1.648;2023-05-08T04:49:43;20.23;;;9.32;;
71108;SDS011;59614;51.012;-1.648;2023-05-08T04:52:08;22.23;;;8.63;;
71108;SDS011;59614;51.012;-1.648;2023-05-08T04:54:34;19.63;;;9.15;;
71108;SDS011;59614;51.012;-1.648;2023-05-08T04:56:59;27.27;;;10.82;;
71108;SDS011;59614;51.012;-1.648;2023-05-08T04:59:25;22.23;;;10.00;;
71108;SDS011;59614;51.012;-1.648;2023-05-08T05:01:50;20.25;;;10.60;;
71108;SDS011;59614;51.012;-1.648;2023-05-08T05:04:16;22.60;;;9.73;;
71108;SDS011;59614;51.012;-1.648;2023-05-08T05:06:41;26.00;;;9.93;;
71108;SDS011;59614;51.012;-1.648;2023-05-08T05:09:07;20.00;;;10.05;;
71108;SDS011;59614;51.012;-1.648;2023-05-08T05:11:33;22.90;;;10.55;;
71108;SDS011;59614;51.012;-1.648;2023-05-08T05:13:58;24.38;;;10.13;;
71108;SDS011;59614;51.012;-1.648;2023-05-08T05:16:24;19.08;;;10.43;;
71108;SDS011;59614;51.012;-1.648;2023-05-08T05:18:50;21.88;;;10.30;;
71108;SDS011;59614;51.012;-1.648;2023-05-08T05:21:16;19.45;;;10.07;;
71108;SDS011;59614;51.012;-1.648;2023-05-08T05:23:41;22.48;;;11.02;;
71108;SDS011;59614;51.012;-1.648;2023-05-08T05:26:07;24.67;;;10.75;;
71108;SDS011;59614;51.012;-1.648;2023-05-08T05:28:32;23.85;;;10.73;;
71108;SDS011;59614;51.012;-1.648;2023-05-08T05:30:58;21.38;;;10.43;;
71108;SDS011;59614;51.012;-1.648;2023-05-08T05:33:24;17.42;;;10.00;;
71108;SDS011;59614;51.012;-1.648;2023-05-08T05:35:49;21.38;;;8.68;;
71108;SDS011;59614;51.012;-1.648;2023-05-08T05:38:15;14.73;;;8.55;;
71108;SDS011;59614;51.012;-1.648;2023-05-08T05:40:41;23.25;;;9.85;;
71108;SDS011;59614;51.012;-1.648;2023-05-08T05:43:06;18.05;;;9.35;;
71108;SDS011;59614;51.012;-1.648;2023-05-08T05:45:32;18.80;;;8.90;;
71108;SDS011;59614;51.012;-1.648;2023-05-08T05:47:57;19.05;;;8.88;;
71108;SDS011;59614;51.012;-1.648;2023-05-08T05:50:23;16.05;;;7.53;;
71108;SDS011;59614;51.012;-1.648;2023-05-08T05:52:48;16.42;;;8.70;;
71108;SDS011;59614;51.012;-1.648;2023-05-08T05:55:14;16.25;;;8.18;;
71108;SDS011;59614;51.012;-1.648;2023-05-08T05:57:40;19.05;;;8.15;;
71108;SDS011;59614;51.012;-1.648;2023-05-08T06:00:05;19.98;;;8.48;;
71108;SDS011;59614;51.012;-1.648;2023-05-08T06:02:31;16.30;;;7.95;;
71108;SDS011;59614;51.012;-1.648;2023-05-08T06:04:59;14.45;;;7.15;;
71108;SDS011;59614;51.012;-1.648;2023-05-08T06:07:25;16.33;;;7.63;;
71108;SDS011;59614;51.012;-1.648;2023-05-08T06:09:51;14.27;;;7.03;;
71108;SDS011;59614;51.012;-1.648;2023-05-08T06:12:17;15.13;;;7.47;;
71108;SDS011;59614;51.012;-1.648;2023-05-08T06:14:43;13.35;;;6.70;;
71108;SDS011;59614;51.012;-1.648;2023-05-08T06:17:09;14.32;;;7.10;;
71108;SDS011;59614;51.012;-1.648;2023-05-08T06:19:34;14.32;;;7.60;;
71108;SDS011;59614;51.012;-1.648;2023-05-08T06:22:00;17.50;;;7.13;;
71108;SDS011;59614;51.012;-1.648;2023-05-08T06:24:26;13.90;;;6.72;;
71108;SDS011;59614;51.012;-1.648;2023-05-08T06:26:51;14.30;;;7.07;;
71108;SDS011;59614;51.012;-1.648;2023-05-08T06:29:17;20.83;;;7.20;;
71108;SDS011;59614;51.012;-1.648;2023-05-08T06:31:42;17.80;;;7.05;;
71108;SDS011;59614;51.012;-1.648;2023-05-08T06:34:08;14.15;;;6.35;;
71108;SDS011;59614;51.012;-1.648;2023-05-08T06:36:34;14.00;;;5.93;;
71108;SDS011;59614;51.012;-1.648;2023-05-08T06:39:00;16.48;;;6.35;;
71108;SDS011;59614;51.012;-1.648;2023-05-08T06:41:28;12.13;;;5.95;;
71108;SDS011;59614;51.012;-1.648;2023-05-08T06:43:53;13.18;;;5.78;;
71108;SDS011;59614;51.012;-1.648;2023-05-08T06:46:19;14.93;;;6.13;;
71108;SDS011;59614;51.012;-1.648;2023-05-08T06:48:45;12.52;;;6.07;;
71108;SDS011;59614;51.012;-1.648;2023-05-08T06:51:11;15.27;;;6.05;;
71108;SDS011;59614;51.012;-1.648;2023-05-08T06:53:36;10.35;;;5.45;;
71108;SDS011;59614;51.012;-1.648;2023-05-08T06:56:02;10.88;;;5.40;;
71108;SDS011;59614;51.012;-1.648;2023-05-08T06:58:27;17.13;;;6.53;;
71108;SDS011;59614;51.012;-1.648;2023-05-08T07:00:55;14.65;;;5.63;;
71108;SDS011;59614;51.012;-1.648;2023-05-08T07:03:20;17.50;;;6.22;;
71108;SDS011;59614;51.012;-1.648;2023-05-08T07:05:46;14.88;;;5.53;;
71108;SDS011;59614;51.012;-1.648;2023-05-08T07:08:11;13.30;;;5.93;;
71108;SDS011;59614;51.012;-1.648;2023-05-08T07:10:37;12.55;;;5.18;;
71108;SDS011;59614;51.012;-1.648;2023-05-08T07:13:02;12.75;;;5.70;;
71108;SDS011;59614;51.012;-1.648;2023-05-08T07:15:29;12.00;;;5.53;;
71108;SDS011;59614;51.012;-1.648;2023-05-08T07:17:55;15.85;;;5.50;;
71108;SDS011;59614;51.012;-1.648;2023-05-08T07:20:21;10.98;;;4.35;;
71108;SDS011;59614;51.012;-1.648;2023-05-08T07:22:48;12.60;;;4.85;;
71108;SDS011;59614;51.012;-1.648;2023-05-08T07:25:14;9.45;;;4.25;;
71108;SDS011;59614;51.012;-1.648;2023-05-08T07:27:40;14.25;;;4.38;;
71108;SDS011;59614;51.012;-1.648;2023-05-08T07:30:06;10.82;;;4.15;;
71108;SDS011;59614;51.012;-1.648;2023-05-08T07:32:32;11.55;;;4.20;;
71108;SDS011;59614;51.012;-1.648;2023-05-08T07:34:57;17.92;;;4.43;;
71108;SDS011;59614;51.012;-1.648;2023-05-08T07:37:23;10.55;;;3.63;;
71108;SDS011;59614;51.012;-1.648;2023-05-08T07:39:48;10.15;;;4.18;;
71108;SDS011;59614;51.012;-1.648;2023-05-08T07:42:14;10.60;;;4.00;;
71108;SDS011;59614;51.012;-1.648;2023-05-08T07:44:39;12.93;;;4.20;;
71108;SDS011;59614;51.012;-1.648;2023-05-08T07:47:05;10.85;;;3.75;;
71108;SDS011;59614;51.012;-1.648;2023-05-08T07:49:30;9.48;;;4.20;;
71108;SDS011;59614;51.012;-1.648;2023-05-08T07:51:55;10.13;;;4.00;;
71108;SDS011;59614;51.012;-1.648;2023-05-08T07:54:21;7.80;;;3.60;;
71108;SDS011;59614;51.012;-1.648;2023-05-08T07:56:46;8.23;;;3.45;;
71108;SDS011;59614;51.012;-1.648;2023-05-08T07:59:12;8.45;;;3.70;;
71108;SDS011;59614;51.012;-1.648;2023-05-08T08:01:37;13.05;;;3.40;;
71108;SDS011;59614;51.012;-1.648;2023-05-08T08:04:03;8.50;;;3.33;;
71108;SDS011;59614;51.012;-1.648;2023-05-08T08:06:29;10.52;;;3.63;;
71108;SDS011;59614;51.012;-1.648;2023-05-08T08:08:55;7.93;;;3.92;;
71108;SDS011;59614;51.012;-1.648;2023-05-08T08:11:21;10.95;;;3.20;;
71108;SDS011;59614;51.012;-1.648;2023-05-08T08:13:46;8.88;;;3.50;;
71108;SDS011;59614;51.012;-1.648;2023-05-08T08:16:12;8.05;;;3.17;;
71108;SDS011;59614;51.012;-1.648;2023-05-08T08:18:37;7.25;;;3.10;;
71108;SDS011;59614;51.012;-1.648;2023-05-08T08:21:06;10.02;;;2.90;;
71108;SDS011;59614;51.012;-1.648;2023-05-08T08:23:32;8.65;;;3.00;;
71108;SDS011;59614;51.012;-1.648;2023-05-08T08:25:57;6.60;;;2.60;;
71108;SDS011;59614;51.012;-1.648;2023-05-08T08:28:23;5.25;;;2.67;;
71108;SDS011;59614;51.012;-1.648;2023-05-08T08:30:48;7.00;;;3.00;;
71108;SDS011;59614;51.012;-1.648;2023-05-08T08:33:14;5.70;;;2.78;;
71108;SDS011;59614;51.012;-1.648;2023-05-08T08:35:40;6.60;;;2.50;;
71108;SDS011;59614;51.012;-1.648;2023-05-08T08:38:05;6.30;;;2.85;;
71108;SDS011;59614;51.012;-1.648;2023-05-08T08:40:31;6.18;;;2.67;;
71108;SDS011;59614;51.012;-1.648;2023-05-08T08:42:56;6.57;;;2.80;;
71108;SDS011;59614;51.012;-1.648;2023-05-08T08:45:23;5.40;;;2.63;;
71108;SDS011;59614;51.012;-1.648;2023-05-08T08:47:48;8.88;;;2.80;;
71108;SDS011;59614;51.012;-1.648;2023-05-08T08:50:16;9.57;;;2.80;;
71108;SDS011;59614;51.012;-1.648;2023-05-08T08:55:18;5.22;;;2.42;;
71108;SDS011;59614;51.012;-1.648;2023-05-08T09:00:31;7.13;;;2.63;;
71108;SDS011;59614;51.012;-1.648;2023-05-08T09:02:57;7.75;;;2.50;;
71108;SDS011;59614;51.012;-1.648;2023-05-08T09:05:22;7.90;;;2.60;;
71108;SDS011;59614;51.012;-1.648;2023-05-08T09:07:49;6.68;;;2.40;;
71108;SDS011;59614;51.012;-1.648;2023-05-08T09:10:18;6.78;;;2.67;;
71108;SDS011;59614;51.012;-1.648;2023-05-08T09:12:44;5.20;;;2.45;;
71108;SDS011;59614;51.012;-1.648;2023-05-08T09:15:09;8.68;;;2.40;;
71108;SDS011;59614;51.012;-1.648;2023-05-08T09:17:35;5.95;;;2.60;;
71108;SDS011;59614;51.012;-1.648;2023-05-08T09:20:01;5.72;;;2.40;;
71108;SDS011;59614;51.012;-1.648;2023-05-08T09:22:27;5.95;;;2.30;;
71108;SDS011;59614;51.012;-1.648;2023-05-08T09:24:55;7.05;;;2.50;;
71108;SDS011;59614;51.012;-1.648;2023-05-08T09:27:22;5.20;;;2.47;;
71108;SDS011;59614;51.012;-1.648;2023-05-08T09:29:59;4.45;;;2.10;;
71108;SDS011;59614;51.012;-1.648;2023-05-08T09:32:32;7.72;;;2.35;;
71108;SDS011;59614;51.012;-1.648;2023-05-08T09:34:59;4.55;;;2.10;;
71108;SDS011;59614;51.012;-1.648;2023-05-08T09:37:26;7.32;;;1.98;;
71108;SDS011;59614;51.012;-1.648;2023-05-08T09:39:52;5.68;;;2.20;;
71108;SDS011;59614;51.012;-1.648;2023-05-08T09:42:18;3.08;;;2.00;;
71108;SDS011;59614;51.012;-1.648;2023-05-08T09:44:51;5.40;;;2.22;;
71108;SDS011;59614;51.012;-1.648;2023-05-08T09:49:58;3.65;;;1.77;;
71108;SDS011;59614;51.012;-1.648;2023-05-08T09:52:25;5.18;;;2.10;;
71108;SDS011;59614;51.012;-1.648;2023-05-08T09:57:56;7.60;;;2.00;;
71108;SDS011;59614;51.012;-1.648;2023-05-08T10:00:23;4.60;;;1.95;;
71108;SDS011;59614;51.012;-1.648;2023-05-08T10:02:58;6.68;;;1.98;;
71108;SDS011;59614;51.012;-1.648;2023-05-08T10:05:26;5.05;;;2.33;;
71108;SDS011;59614;51.012;-1.648;2023-05-08T10:07:57;4.38;;;1.90;;
71108;SDS011;59614;51.012;-1.648;2023-05-08T10:10:23;7.00;;;2.10;;
71108;SDS011;59614;51.012;-1.648;2023-05-08T10:12:53;6.05;;;2.20;;
71108;SDS011;59614;51.012;-1.648;2023-05-08T10:15:38;5.80;;;2.17;;
71108;SDS011;59614;51.012;-1.648;2023-05-08T10:18:06;6.30;;;2.50;;
71108;SDS011;59614;51.012;-1.648;2023-05-08T10:20:40;5.90;;;2.22;;
71108;SDS011;59614;51.012;-1.648;2023-05-08T10:23:09;7.75;;;2.10;;
71108;SDS011;59614;51.012;-1.648;2023-05-08T10:25:41;5.63;;;2.20;;
71108;SDS011;59614;51.012;-1.648;2023-05-08T10:28:12;6.45;;;2.47;;
71108;SDS011;59614;51.012;-1.648;2023-05-08T10:30:47;4.80;;;2.22;;
71108;SDS011;59614;51.012;-1.648;2023-05-08T10:33:15;5.50;;;2.10;;
71108;SDS011;59614;51.012;-1.648;2023-05-08T10:35:44;5.53;;;2.00;;
71108;SDS011;59614;51.012;-1.648;2023-05-08T10:38:10;3.70;;;1.88;;
71108;SDS011;59614;51.012;-1.648;2023-05-08T10:40:36;11.65;;;2.30;;
71108;SDS011;59614;51.012;-1.648;2023-05-08T10:43:02;5.68;;;2.20;;
71108;SDS011;59614;51.012;-1.648;2023-05-08T10:45:31;6.50;;;2.35;;
71108;SDS011;59614;51.012;-1.648;2023-05-08T10:56:16;9.02;;;2.67;;
71108;SDS011;59614;51.012;-1.648;2023-05-08T10:58:42;6.30;;;2.85;;
71108;SDS011;59614;51.012;-1.648;2023-05-08T11:09:14;7.05;;;2.50;;
71108;SDS011;59614;51.012;-1.648;2023-05-08T11:11:47;5.90;;;2.42;;
71108;SDS011;59614;51.012;-1.648;2023-05-08T11:14:20;6.75;;;2.55;;
71108;SDS011;59614;51.012;-1.648;2023-05-08T11:19:21;5.93;;;2.65;;
71108;SDS011;59614;51.012;-1.648;2023-05-08T11:24:35;6.70;;;2.42;;
71108;SDS011;59614;51.012;-1.648;2023-05-08T11:27:02;9.77;;;2.70;;
71108;SDS011;59614;51.012;-1.648;2023-05-08T11:29:28;6.20;;;2.67;;
71108;SDS011;59614;51.012;-1.648;2023-05-08T11:31:53;10.70;;;3.03;;
71108;SDS011;59614;51.012;-1.648;2023-05-08T11:37:10;5.60;;;2.47;;
71108;SDS011;59614;51.012;-1.648;2023-05-08T11:39:36;5.05;;;2.13;;
71108;SDS011;59614;51.012;-1.648;2023-05-08T11:47:40;7.47;;;2.42;;
71108;SDS011;59614;51.012;-1.648;2023-05-08T11:50:08;7.55;;;3.05;;
71108;SDS011;59614;51.012;-1.648;2023-05-08T11:52:34;5.38;;;2.47;;
71108;SDS011;59614;51.012;-1.648;2023-05-08T11:55:04;7.90;;;2.40;;
71108;SDS011;59614;51.012;-1.648;2023-05-08T11:57:32;4.22;;;2.42;;
71108;SDS011;59614;51.012;-1.648;2023-05-08T12:00:02;5.25;;;2.60;;
71108;SDS011;59614;51.012;-1.648;2023-05-08T12:02:40;4.00;;;2.30;;
71108;SDS011;59614;51.012;-1.648;2023-05-08T12:05:07;7.18;;;2.50;;
71108;SDS011;59614;51.012;-1.648;2023-05-08T12:07:43;6.13;;;2.30;;
71108;SDS011;59614;51.012;-1.648;2023-05-08T12:10:10;5.05;;;2.20;;
71108;SDS011;59614;51.012;-1.648;2023-05-08T12:12:40;5.38;;;2.25;;
71108;SDS011;59614;51.012;-1.648;2023-05-08T12:15:07;4.68;;;2.50;;
71108;SDS011;59614;51.012;-1.648;2023-05-08T12:17:34;4.45;;;2.63;;
71108;SDS011;59614;51.012;-1.648;2023-05-08T12:22:39;4.80;;;2.50;;
71108;SDS011;59614;51.012;-1.648;2023-05-08T12:25:05;4.10;;;2.55;;
71108;SDS011;59614;51.012;-1.648;2023-05-08T12:27:36;6.03;;;2.70;;
71108;SDS011;59614;51.012;-1.648;2023-05-08T12:30:06;6.68;;;2.60;;
71108;SDS011;59614;51.012;-1.648;2023-05-08T12:32:33;7.55;;;2.53;;
71108;SDS011;59614;51.012;-1.648;2023-05-08T12:35:01;7.97;;;3.00;;
71108;SDS011;59614;51.012;-1.648;2023-05-08T12:37:27;7.57;;;2.55;;
71108;SDS011;59614;51.012;-1.648;2023-05-08T12:39:53;5.22;;;2.33;;
71108;SDS011;59614;51.012;-1.648;2023-05-08T12:42:18;7.57;;;2.40;;
71108;SDS011;59614;51.012;-1.648;2023-05-08T12:44:52;4.97;;;2.10;;
71108;SDS011;59614;51.012;-1.648;2023-05-08T12:47:18;6.80;;;2.13;;
71108;SDS011;59614;51.012;-1.648;2023-05-08T12:49:46;4.97;;;2.40;;
71108;SDS011;59614;51.012;-1.648;2023-05-08T12:52:15;5.63;;;2.65;;
71108;SDS011;59614;51.012;-1.648;2023-05-08T12:54:45;4.97;;;2.67;;
71108;SDS011;59614;51.012;-1.648;2023-05-08T12:57:13;9.23;;;2.90;;
71108;SDS011;59614;51.012;-1.648;2023-05-08T12:59:40;6.75;;;3.40;;
71108;SDS011;59614;51.012;-1.648;2023-05-08T13:02:13;8.27;;;3.38;;
71108;SDS011;59614;51.012;-1.648;2023-05-08T13:04:40;15.60;;;3.88;;
71108;SDS011;59614;51.012;-1.648;2023-05-08T13:07:06;8.23;;;3.30;;
71108;SDS011;59614;51.012;-1.648;2023-05-08T13:09:32;11.30;;;3.95;;
71108;SDS011;59614;51.012;-1.648;2023-05-08T13:11:57;15.77;;;4.65;;
71108;SDS011;59614;51.012;-1.648;2023-05-08T13:14:23;8.45;;;3.88;;
71108;SDS011;59614;51.012;-1.648;2023-05-08T13:16:48;11.60;;;4.18;;
71108;SDS011;59614;51.012;-1.648;2023-05-08T13:19:15;11.18;;;4.22;;
71108;SDS011;59614;51.012;-1.648;2023-05-08T13:21:41;14.02;;;4.40;;
71108;SDS011;59614;51.012;-1.648;2023-05-08T13:24:14;11.30;;;4.72;;
71108;SDS011;59614;51.012;-1.648;2023-05-08T13:26:40;12.55;;;4.80;;
71108;SDS011;59614;51.012;-1.648;2023-05-08T13:29:05;16.98;;;5.00;;
71108;SDS011;59614;51.012;-1.648;2023-05-08T13:31:31;9.25;;;4.32;;
71108;SDS011;59614;51.012;-1.648;2023-05-08T13:33:56;14.35;;;4.47;;
71108;SDS011;59614;51.012;-1.648;2023-05-08T13:36:22;10.85;;;4.13;;
71108;SDS011;59614;51.012;-1.648;2023-05-08T13:38:48;15.00;;;4.07;;
71108;SDS011;59614;51.012;-1.648;2023-05-08T13:41:15;13.20;;;3.85;;
71108;SDS011;59614;51.012;-1.648;2023-05-08T13:43:41;13.18;;;4.03;;
71108;SDS011;59614;51.012;-1.648;2023-05-08T13:46:06;15.35;;;4.85;;
71108;SDS011;59614;51.012;-1.648;2023-05-08T13:48:32;15.63;;;4.85;;
71108;SDS011;59614;51.012;-1.648;2023-05-08T13:50:57;11.00;;;4.30;;
71108;SDS011;59614;51.012;-1.648;2023-05-08T13:53:23;15.52;;;4.78;;
71108;SDS011;59614;51.012;-1.648;2023-05-08T13:55:48;14.15;;;4.80;;
71108;SDS011;59614;51.012;-1.648;2023-05-08T13:58:13;12.98;;;4.70;;
71108;SDS011;59614;51.012;-1.648;2023-05-08T14:00:39;10.60;;;4.38;;
71108;SDS011;59614;51.012;-1.648;2023-05-08T14:03:04;14.88;;;4.40;;
71108;SDS011;59614;51.012;-1.648;2023-05-08T14:05:30;13.70;;;4.63;;
71108;SDS011;59614;51.012;-1.648;2023-05-08T14:07:55;12.00;;;4.72;;
71108;SDS011;59614;51.012;-1.648;2023-05-08T14:10:21;12.38;;;4.25;;
71108;SDS011;59614;51.012;-1.648;2023-05-08T14:12:46;13.65;;;4.40;;
71108;SDS011;59614;51.012;-1.648;2023-05-08T14:15:12;13.05;;;4.45;;
71108;SDS011;59614;51.012;-1.648;2023-05-08T14:17:37;17.17;;;5.03;;
71108;SDS011;59614;51.012;-1.648;2023-05-08T14:20:03;10.60;;;4.35;;
71108;SDS011;59614;51.012;-1.648;2023-05-08T14:22:29;18.42;;;4.82;;
71108;SDS011;59614;51.012;-1.648;2023-05-08T14:24:54;13.68;;;4.60;;
71108;SDS011;59614;51.012;-1.648;2023-05-08T14:27:20;16.23;;;4.47;;
71108;SDS011;59614;51.012;-1.648;2023-05-08T14:29:45;14.05;;;4.63;;
71108;SDS011;59614;51.012;-1.648;2023-05-08T14:32:11;17.17;;;5.20;;
71108;SDS011;59614;51.012;-1.648;2023-05-08T14:34:36;12.02;;;4.97;;
71108;SDS011;59614;51.012;-1.648;2023-05-08T14:37:02;12.50;;;4.53;;
71108;SDS011;59614;51.012;-1.648;2023-05-08T14:39:27;14.73;;;4.55;;
71108;SDS011;59614;51.012;-1.648;2023-05-08T14:41:53;12.05;;;4.32;;
71108;SDS011;59614;51.012;-1.648;2023-05-08T14:44:19;18.55;;;5.00;;
71108;SDS011;59614;51.012;-1.648;2023-05-08T14:46:44;15.90;;;4.75;;
71108;SDS011;59614;51.012;-1.648;2023-05-08T14:49:10;15.52;;;5.03;;
71108;SDS011;59614;51.012;-1.648;2023-05-08T14:51:35;15.48;;;4.82;;
71108;SDS011;59614;51.012;-1.648;2023-05-08T14:54:01;17.95;;;5.07;;
71108;SDS011;59614;51.012;-1.648;2023-05-08T14:56:26;18.60;;;5.47;;
71108;SDS011;59614;51.012;-1.648;2023-05-08T14:58:52;20.88;;;6.18;;
71108;SDS011;59614;51.012;-1.648;2023-05-08T15:01:19;17.73;;;5.72;;
71108;SDS011;59614;51.012;-1.648;2023-05-08T15:03:46;21.77;;;5.68;;
71108;SDS011;59614;51.012;-1.648;2023-05-08T15:06:17;24.73;;;6.45;;
71108;SDS011;59614;51.012;-1.648;2023-05-08T15:08:46;21.77;;;6.03;;
71108;SDS011;59614;51.012;-1.648;2023-05-08T15:11:12;14.95;;;6.30;;
71108;SDS011;59614;51.012;-1.648;2023-05-08T15:13:37;20.98;;;7.03;;
71108;SDS011;59614;51.012;-1.648;2023-05-08T15:16:03;28.85;;;6.88;;
71108;SDS011;59614;51.012;-1.648;2023-05-08T15:18:28;27.38;;;6.78;;
71108;SDS011;59614;51.012;-1.648;2023-05-08T15:20:54;21.83;;;6.70;;
71108;SDS011;59614;51.012;-1.648;2023-05-08T15:23:19;23.15;;;7.53;;
71108;SDS011;59614;51.012;-1.648;2023-05-08T15:25:45;28.45;;;7.15;;
71108;SDS011;59614;51.012;-1.648;2023-05-08T15:28:11;25.23;;;7.18;;
71108;SDS011;59614;51.012;-1.648;2023-05-08T15:30:36;23.67;;;7.05;;
71108;SDS011;59614;51.012;-1.648;2023-05-08T15:33:01;25.58;;;7.10;;
71108;SDS011;59614;51.012;-1.648;2023-05-08T15:35:27;21.02;;;6.88;;
71108;SDS011;59614;51.012;-1.648;2023-05-08T15:37:52;19.85;;;6.57;;
71108;SDS011;59614;51.012;-1.648;2023-05-08T15:40:18;21.27;;;6.47;;
71108;SDS011;59614;51.012;-1.648;2023-05-08T15:42:43;21.92;;;7.43;;
71108;SDS011;59614;51.012;-1.648;2023-05-08T15:45:09;24.60;;;6.60;;